sensor_id;sensor_type;location;lat;lon;timestamp;temperature;humidity
42339;DHT22;27993;45.392;10.918;2022-09-25T00:01:18;16.30;99.90
42339;DHT22;27993;45.392;10.918;2022-09-25T00:03:49;16.20;99.90
42339;DHT22;27993;45.392;10.918;2022-09-25T00:06:23;16.10;99.90
42339;DHT22;27993;45.392;10.918;2022-09-25T00:08:53;16.10;99.90
42339;DHT22;27993;45.392;10.918;2022-09-25T00:11:27;16.00;99.90
42339;DHT22;27993;45.392;10.918;2022-09-25T00:13:59;15.90;99.90
42339;DHT22;27993;45.392;10.918;2022-09-25T00:16:31;15.90;99.90
42339;DHT22;27993;45.392;10.918;2022-09-25T00:19:02;15.90;99.90
42339;DHT22;27993;45.392;10.918;2022-09-25T00:21:51;15.90;99.90
42339;DHT22;27993;45.392;10.918;2022-09-25T00:24:22;15.90;99.90
42339;DHT22;27993;45.392;10.918;2022-09-25T00:26:53;15.90;99.90
42339;DHT22;27993;45.392;10.918;2022-09-25T00:29:24;16.00;99.90
42339;DHT22;27993;45.392;10.918;2022-09-25T00:31:54;16.00;99.90
42339;DHT22;27993;45.392;10.918;2022-09-25T00:34:25;16.10;99.90
42339;DHT22;27993;45.392;10.918;2022-09-25T00:36:56;16.20;99.90
42339;DHT22;27993;45.392;10.918;2022-09-25T00:39:26;16.20;99.90
42339;DHT22;27993;45.392;10.918;2022-09-25T00:41:57;16.00;99.90
42339;DHT22;27993;45.392;10.918;2022-09-25T00:50:12;16.10;99.90
42339;DHT22;27993;45.392;10.918;2022-09-25T00:52:45;16.10;99.90
42339;DHT22;27993;45.392;10.918;2022-09-25T00:55:17;16.10;99.90
42339;DHT22;27993;45.392;10.918;2022-09-25T00:57:51;16.00;99.90
42339;DHT22;27993;45.392;10.918;2022-09-25T01:00:22;16.10;99.90
42339;DHT22;27993;45.392;10.918;2022-09-25T01:02:54;16.20;99.90
42339;DHT22;27993;45.392;10.918;2022-09-25T01:05:30;16.20;99.90
42339;DHT22;27993;45.392;10.918;2022-09-25T01:08:04;16.20;99.90
42339;DHT22;27993;45.392;10.918;2022-09-25T01:10:36;16.20;99.90
42339;DHT22;27993;45.392;10.918;2022-09-25T01:13:07;16.20;99.90
42339;DHT22;27993;45.392;10.918;2022-09-25T01:15:57;16.20;99.90
42339;DHT22;27993;45.392;10.918;2022-09-25T01:38:05;16.20;99.90
42339;DHT22;27993;45.392;10.918;2022-09-25T01:43:31;16.10;99.90
42339;DHT22;27993;45.392;10.918;2022-09-25T01:48:44;16.00;99.90
42339;DHT22;27993;45.392;10.918;2022-09-25T01:51:23;15.90;99.90
42339;DHT22;27993;45.392;10.918;2022-09-25T01:53:59;16.00;99.90
42339;DHT22;27993;45.392;10.918;2022-09-25T01:56:37;16.20;99.90
42339;DHT22;27993;45.392;10.918;2022-09-25T01:59:16;16.20;99.90
42339;DHT22;27993;45.392;10.918;2022-09-25T02:01:50;16.20;99.90
42339;DHT22;27993;45.392;10.918;2022-09-25T02:04:27;16.20;99.90
42339;DHT22;27993;45.392;10.918;2022-09-25T02:07:03;16.10;99.90
42339;DHT22;27993;45.392;10.918;2022-09-25T02:09:39;16.00;99.90
42339;DHT22;27993;45.392;10.918;2022-09-25T02:12:25;16.00;99.90
42339;DHT22;27993;45.392;10.918;2022-09-25T02:15:22;16.00;99.90
42339;DHT22;27993;45.392;10.918;2022-09-25T02:17:56;16.00;99.90
42339;DHT22;27993;45.392;10.918;2022-09-25T02:21:12;16.00;99.90
42339;DHT22;27993;45.392;10.918;2022-09-25T02:23:51;15.90;99.90
42339;DHT22;27993;45.392;10.918;2022-09-25T02:26:28;15.80;99.90
42339;DHT22;27993;45.392;10.918;2022-09-25T02:29:00;15.70;99.90
42339;DHT22;27993;45.392;10.918;2022-09-25T02:31:35;15.80;99.90
42339;DHT22;27993;45.392;10.918;2022-09-25T02:34:08;15.80;99.90
42339;DHT22;27993;45.392;10.918;2022-09-25T02:36:40;15.80;99.90
42339;DHT22;27993;45.392;10.918;2022-09-25T02:39:15;15.80;99.90
42339;DHT22;27993;45.392;10.918;2022-09-25T02:45:32;15.90;99.90
42339;DHT22;27993;45.392;10.918;2022-09-25T02:50:27;16.00;99.90
42339;DHT22;27993;45.392;10.918;2022-09-25T02:53:19;16.00;99.90
42339;DHT22;27993;45.392;10.918;2022-09-25T02:56:11;16.00;99.90
42339;DHT22;27993;45.392;10.918;2022-09-25T02:58:50;16.00;99.90
42339;DHT22;27993;45.392;10.918;2022-09-25T03:01:25;16.00;99.90
42339;DHT22;27993;45.392;10.918;2022-09-25T03:03:57;16.00;99.90
42339;DHT22;27993;45.392;10.918;2022-09-25T03:06:29;16.10;99.90
42339;DHT22;27993;45.392;10.918;2022-09-25T03:09:01;16.10;99.90
42339;DHT22;27993;45.392;10.918;2022-09-25T03:11:35;16.10;99.90
42339;DHT22;27993;45.392;10.918;2022-09-25T03:14:13;16.00;99.90
42339;DHT22;27993;45.392;10.918;2022-09-25T03:16:50;16.00;99.90
42339;DHT22;27993;45.392;10.918;2022-09-25T03:19:24;16.00;99.90
42339;DHT22;27993;45.392;10.918;2022-09-25T03:21:56;16.00;99.90
42339;DHT22;27993;45.392;10.918;2022-09-25T03:24:26;16.00;99.90
42339;DHT22;27993;45.392;10.918;2022-09-25T03:26:57;16.00;99.90
42339;DHT22;27993;45.392;10.918;2022-09-25T03:29:27;16.00;99.90
42339;DHT22;27993;45.392;10.918;2022-09-25T03:32:00;16.00;99.90
42339;DHT22;27993;45.392;10.918;2022-09-25T03:34:31;16.00;99.90
42339;DHT22;27993;45.392;10.918;2022-09-25T03:37:01;16.00;99.90
42339;DHT22;27993;45.392;10.918;2022-09-25T03:39:32;16.00;99.90
42339;DHT22;27993;45.392;10.918;2022-09-25T03:42:02;16.00;99.90
42339;DHT22;27993;45.392;10.918;2022-09-25T03:44:34;16.00;99.90
42339;DHT22;27993;45.392;10.918;2022-09-25T03:47:04;15.90;99.90
42339;DHT22;27993;45.392;10.918;2022-09-25T03:49:35;15.90;99.90
42339;DHT22;27993;45.392;10.918;2022-09-25T03:52:06;15.90;99.90
42339;DHT22;27993;45.392;10.918;2022-09-25T03:54:36;16.00;99.90
42339;DHT22;27993;45.392;10.918;2022-09-25T03:57:07;16.00;99.90
42339;DHT22;27993;45.392;10.918;2022-09-25T03:59:37;16.00;99.90
42339;DHT22;27993;45.392;10.918;2022-09-25T04:02:08;16.00;99.90
42339;DHT22;27993;45.392;10.918;2022-09-25T04:04:39;16.00;99.90
42339;DHT22;27993;45.392;10.918;2022-09-25T04:07:11;16.00;99.90
42339;DHT22;27993;45.392;10.918;2022-09-25T04:09:41;16.00;99.90
42339;DHT22;27993;45.392;10.918;2022-09-25T04:12:12;16.00;99.90
42339;DHT22;27993;45.392;10.918;2022-09-25T04:14:42;16.00;99.90
42339;DHT22;27993;45.392;10.918;2022-09-25T04:17:16;16.00;99.90
42339;DHT22;27993;45.392;10.918;2022-09-25T04:19:46;16.00;99.90
42339;DHT22;27993;45.392;10.918;2022-09-25T04:22:17;16.00;99.90
42339;DHT22;27993;45.392;10.918;2022-09-25T04:24:47;16.00;99.90
42339;DHT22;27993;45.392;10.918;2022-09-25T04:27:20;15.90;99.90
42339;DHT22;27993;45.392;10.918;2022-09-25T04:29:51;15.90;99.90
42339;DHT22;27993;45.392;10.918;2022-09-25T04:32:22;15.90;99.90
42339;DHT22;27993;45.392;10.918;2022-09-25T04:35:11;15.90;99.90
42339;DHT22;27993;45.392;10.918;2022-09-25T04:37:41;16.00;99.90
42339;DHT22;27993;45.392;10.918;2022-09-25T04:40:12;16.00;99.90
42339;DHT22;27993;45.392;10.918;2022-09-25T04:42:42;16.00;99.90
42339;DHT22;27993;45.392;10.918;2022-09-25T04:45:13;16.00;99.90
42339;DHT22;27993;45.392;10.918;2022-09-25T04:47:45;16.00;99.90
42339;DHT22;27993;45.392;10.918;2022-09-25T04:50:15;15.90;99.90
42339;DHT22;27993;45.392;10.918;2022-09-25T04:52:46;15.90;99.90
42339;DHT22;27993;45.392;10.918;2022-09-25T04:55:18;16.00;99.90
42339;DHT22;27993;45.392;10.918;2022-09-25T04:57:54;16.00;99.90
42339;DHT22;27993;45.392;10.918;2022-09-25T05:00:30;16.00;99.90
42339;DHT22;27993;45.392;10.918;2022-09-25T05:03:03;15.90;99.90
42339;DHT22;27993;45.392;10.918;2022-09-25T05:05:34;15.90;99.90
42339;DHT22;27993;45.392;10.918;2022-09-25T05:08:05;15.80;99.90
42339;DHT22;27993;45.392;10.918;2022-09-25T05:10:36;15.80;99.90
42339;DHT22;27993;45.392;10.918;2022-09-25T05:13:09;15.80;99.90
42339;DHT22;27993;45.392;10.918;2022-09-25T05:15:40;15.90;99.90
42339;DHT22;27993;45.392;10.918;2022-09-25T05:18:18;15.90;99.90
42339;DHT22;27993;45.392;10.918;2022-09-25T05:20:49;15.90;99.90
42339;DHT22;27993;45.392;10.918;2022-09-25T05:23:20;15.90;99.90
42339;DHT22;27993;45.392;10.918;2022-09-25T05:25:55;15.90;99.90
42339;DHT22;27993;45.392;10.918;2022-09-25T05:28:30;16.00;99.90
42339;DHT22;27993;45.392;10.918;2022-09-25T05:31:02;15.90;99.90
42339;DHT22;27993;45.392;10.918;2022-09-25T05:33:34;16.00;99.90
42339;DHT22;27993;45.392;10.918;2022-09-25T05:36:06;16.00;99.90
42339;DHT22;27993;45.392;10.918;2022-09-25T05:38:38;16.00;99.90
42339;DHT22;27993;45.392;10.918;2022-09-25T05:41:10;16.00;99.90
42339;DHT22;27993;45.392;10.918;2022-09-25T05:43:42;16.00;99.90
42339;DHT22;27993;45.392;10.918;2022-09-25T05:46:13;16.00;99.90
42339;DHT22;27993;45.392;10.918;2022-09-25T05:48:45;16.00;99.90
42339;DHT22;27993;45.392;10.918;2022-09-25T05:51:16;16.00;99.90
42339;DHT22;27993;45.392;10.918;2022-09-25T05:53:46;16.10;99.90
42339;DHT22;27993;45.392;10.918;2022-09-25T05:56:17;16.10;99.90
42339;DHT22;27993;45.392;10.918;2022-09-25T05:58:47;16.10;99.90
42339;DHT22;27993;45.392;10.918;2022-09-25T06:01:18;16.10;99.90
42339;DHT22;27993;45.392;10.918;2022-09-25T06:03:49;16.10;99.90
42339;DHT22;27993;45.392;10.918;2022-09-25T06:06:19;16.20;99.90
42339;DHT22;27993;45.392;10.918;2022-09-25T06:08:52;16.30;99.90
42339;DHT22;27993;45.392;10.918;2022-09-25T06:11:23;16.50;99.90
42339;DHT22;27993;45.392;10.918;2022-09-25T06:13:54;16.50;99.90
42339;DHT22;27993;45.392;10.918;2022-09-25T06:16:26;16.50;99.90
42339;DHT22;27993;45.392;10.918;2022-09-25T06:18:57;16.70;99.90
42339;DHT22;27993;45.392;10.918;2022-09-25T06:21:28;16.80;99.90
42339;DHT22;27993;45.392;10.918;2022-09-25T06:23:59;16.80;99.90
42339;DHT22;27993;45.392;10.918;2022-09-25T06:26:32;16.80;99.90
42339;DHT22;27993;45.392;10.918;2022-09-25T06:29:03;16.90;99.90
42339;DHT22;27993;45.392;10.918;2022-09-25T06:31:34;17.00;99.90
42339;DHT22;27993;45.392;10.918;2022-09-25T06:34:05;17.20;99.90
42339;DHT22;27993;45.392;10.918;2022-09-25T06:36:35;17.30;99.90
42339;DHT22;27993;45.392;10.918;2022-09-25T06:39:06;17.50;99.90
42339;DHT22;27993;45.392;10.918;2022-09-25T06:41:40;17.50;99.90
42339;DHT22;27993;45.392;10.918;2022-09-25T06:44:11;17.70;99.90
42339;DHT22;27993;45.392;10.918;2022-09-25T06:46:48;17.70;99.90
42339;DHT22;27993;45.392;10.918;2022-09-25T06:49:19;17.90;99.90
42339;DHT22;27993;45.392;10.918;2022-09-25T06:51:50;18.00;99.90
42339;DHT22;27993;45.392;10.918;2022-09-25T06:54:21;18.00;99.90
42339;DHT22;27993;45.392;10.918;2022-09-25T06:56:51;18.00;99.90
42339;DHT22;27993;45.392;10.918;2022-09-25T06:59:22;18.10;99.90
42339;DHT22;27993;45.392;10.918;2022-09-25T07:01:55;18.30;99.90
42339;DHT22;27993;45.392;10.918;2022-09-25T07:04:45;18.40;99.90
42339;DHT22;27993;45.392;10.918;2022-09-25T07:07:20;18.60;99.90
42339;DHT22;27993;45.392;10.918;2022-09-25T07:09:53;19.10;99.90
42339;DHT22;27993;45.392;10.918;2022-09-25T07:12:23;18.90;99.90
42339;DHT22;27993;45.392;10.918;2022-09-25T07:14:54;19.50;99.90
42339;DHT22;27993;45.392;10.918;2022-09-25T07:17:25;20.40;99.90
42339;DHT22;27993;45.392;10.918;2022-09-25T07:19:55;20.90;99.90
42339;DHT22;27993;45.392;10.918;2022-09-25T07:22:28;21.60;99.90
42339;DHT22;27993;45.392;10.918;2022-09-25T07:24:58;22.00;99.90
42339;DHT22;27993;45.392;10.918;2022-09-25T07:27:29;23.40;99.90
42339;DHT22;27993;45.392;10.918;2022-09-25T07:30:00;23.80;99.90
42339;DHT22;27993;45.392;10.918;2022-09-25T07:32:31;24.00;99.90
42339;DHT22;27993;45.392;10.918;2022-09-25T07:35:01;24.10;99.90
42339;DHT22;27993;45.392;10.918;2022-09-25T07:37:32;23.50;99.90
42339;DHT22;27993;45.392;10.918;2022-09-25T07:40:03;22.60;99.90
42339;DHT22;27993;45.392;10.918;2022-09-25T07:42:34;23.20;99.90
42339;DHT22;27993;45.392;10.918;2022-09-25T07:45:05;24.30;99.90
42339;DHT22;27993;45.392;10.918;2022-09-25T07:47:35;24.30;99.90
42339;DHT22;27993;45.392;10.918;2022-09-25T07:50:06;24.40;99.90
42339;DHT22;27993;45.392;10.918;2022-09-25T07:52:37;23.60;99.90
42339;DHT22;27993;45.392;10.918;2022-09-25T07:55:08;22.60;99.90
42339;DHT22;27993;45.392;10.918;2022-09-25T07:57:39;22.00;99.90
42339;DHT22;27993;45.392;10.918;2022-09-25T08:00:12;22.10;99.90
42339;DHT22;27993;45.392;10.918;2022-09-25T08:02:42;22.40;99.90
42339;DHT22;27993;45.392;10.918;2022-09-25T08:05:13;22.60;99.90
42339;DHT22;27993;45.392;10.918;2022-09-25T08:07:44;22.40;99.90
42339;DHT22;27993;45.392;10.918;2022-09-25T08:10:15;22.20;99.90
42339;DHT22;27993;45.392;10.918;2022-09-25T08:12:45;21.80;99.90
42339;DHT22;27993;45.392;10.918;2022-09-25T08:15:16;21.60;99.90
42339;DHT22;27993;45.392;10.918;2022-09-25T08:17:47;21.40;99.90
42339;DHT22;27993;45.392;10.918;2022-09-25T08:20:18;21.30;99.90
42339;DHT22;27993;45.392;10.918;2022-09-25T08:22:52;21.30;99.90
42339;DHT22;27993;45.392;10.918;2022-09-25T08:25:23;21.40;99.90
42339;DHT22;27993;45.392;10.918;2022-09-25T08:27:53;21.50;99.90
42339;DHT22;27993;45.392;10.918;2022-09-25T08:30:24;21.50;99.90
42339;DHT22;27993;45.392;10.918;2022-09-25T08:32:54;21.30;99.90
42339;DHT22;27993;45.392;10.918;2022-09-25T08:35:25;21.30;99.90
42339;DHT22;27993;45.392;10.918;2022-09-25T08:37:57;21.30;99.90
42339;DHT22;27993;45.392;10.918;2022-09-25T08:40:27;21.30;99.90
42339;DHT22;27993;45.392;10.918;2022-09-25T08:43:00;21.30;99.90
42339;DHT22;27993;45.392;10.918;2022-09-25T08:45:33;21.30;99.90
42339;DHT22;27993;45.392;10.918;2022-09-25T08:48:32;21.30;99.90
42339;DHT22;27993;45.392;10.918;2022-09-25T08:51:22;21.20;99.90
42339;DHT22;27993;45.392;10.918;2022-09-25T08:53:53;21.20;99.90
42339;DHT22;27993;45.392;10.918;2022-09-25T08:56:26;21.20;99.90
42339;DHT22;27993;45.392;10.918;2022-09-25T09:01:49;21.10;99.90
42339;DHT22;27993;45.392;10.918;2022-09-25T09:04:31;21.10;99.90
42339;DHT22;27993;45.392;10.918;2022-09-25T09:07:15;21.30;99.90
42339;DHT22;27993;45.392;10.918;2022-09-25T09:09:59;21.60;99.90
42339;DHT22;27993;45.392;10.918;2022-09-25T09:12:45;22.10;99.90
42339;DHT22;27993;45.392;10.918;2022-09-25T09:15:45;22.20;99.90
42339;DHT22;27993;45.392;10.918;2022-09-25T09:18:25;23.30;99.90
42339;DHT22;27993;45.392;10.918;2022-09-25T09:21:19;24.60;99.90
42339;DHT22;27993;45.392;10.918;2022-09-25T09:35:07;22.90;99.90
42339;DHT22;27993;45.392;10.918;2022-09-25T09:38:02;23.20;99.90
42339;DHT22;27993;45.392;10.918;2022-09-25T09:40:57;24.70;99.90
42339;DHT22;27993;45.392;10.918;2022-09-25T09:43:39;25.70;99.90
42339;DHT22;27993;45.392;10.918;2022-09-25T09:46:27;24.90;99.90
42339;DHT22;27993;45.392;10.918;2022-09-25T09:54:30;23.80;99.90
42339;DHT22;27993;45.392;10.918;2022-09-25T09:57:11;23.70;99.90
42339;DHT22;27993;45.392;10.918;2022-09-25T10:02:42;24.00;99.90
42339;DHT22;27993;45.392;10.918;2022-09-25T10:05:31;23.60;99.90
42339;DHT22;27993;45.392;10.918;2022-09-25T10:08:03;24.00;99.90
42339;DHT22;27993;45.392;10.918;2022-09-25T10:10:39;23.90;99.90
42339;DHT22;27993;45.392;10.918;2022-09-25T10:13:25;23.50;99.90
42339;DHT22;27993;45.392;10.918;2022-09-25T10:16:05;23.10;99.90
42339;DHT22;27993;45.392;10.918;2022-09-25T10:21:46;22.40;99.90
42339;DHT22;27993;45.392;10.918;2022-09-25T10:27:43;22.70;99.90
42339;DHT22;27993;45.392;10.918;2022-09-25T10:30:19;23.00;99.90
42339;DHT22;27993;45.392;10.918;2022-09-25T10:33:09;23.10;99.90
42339;DHT22;27993;45.392;10.918;2022-09-25T10:35:43;23.10;99.90
42339;DHT22;27993;45.392;10.918;2022-09-25T10:38:29;22.50;99.90
42339;DHT22;27993;45.392;10.918;2022-09-25T10:41:13;23.40;99.90
42339;DHT22;27993;45.392;10.918;2022-09-25T10:44:00;23.80;99.90
42339;DHT22;27993;45.392;10.918;2022-09-25T10:46:35;23.80;99.90
42339;DHT22;27993;45.392;10.918;2022-09-25T10:49:26;23.70;99.90
42339;DHT22;27993;45.392;10.918;2022-09-25T10:52:17;24.10;99.90
42339;DHT22;27993;45.392;10.918;2022-09-25T10:54:48;23.60;99.90
42339;DHT22;27993;45.392;10.918;2022-09-25T10:57:34;23.60;99.90
42339;DHT22;27993;45.392;10.918;2022-09-25T11:00:22;23.80;99.90
42339;DHT22;27993;45.392;10.918;2022-09-25T11:02:59;23.80;99.90
42339;DHT22;27993;45.392;10.918;2022-09-25T11:05:33;23.90;99.90
42339;DHT22;27993;45.392;10.918;2022-09-25T11:08:06;23.90;99.90
42339;DHT22;27993;45.392;10.918;2022-09-25T11:10:55;24.00;99.90
42339;DHT22;27993;45.392;10.918;2022-09-25T11:13:50;23.80;99.90
42339;DHT22;27993;45.392;10.918;2022-09-25T11:16:52;23.40;99.90
42339;DHT22;27993;45.392;10.918;2022-09-25T11:22:29;23.40;99.90
42339;DHT22;27993;45.392;10.918;2022-09-25T11:33:53;24.10;99.90
42339;DHT22;27993;45.392;10.918;2022-09-25T11:36:46;23.90;99.90
42339;DHT22;27993;45.392;10.918;2022-09-25T11:39:25;23.60;99.90
42339;DHT22;27993;45.392;10.918;2022-09-25T11:42:35;23.30;99.90
42339;DHT22;27993;45.392;10.918;2022-09-25T11:45:40;23.50;99.90
42339;DHT22;27993;45.392;10.918;2022-09-25T11:48:17;23.20;99.90
42339;DHT22;27993;45.392;10.918;2022-09-25T11:51:03;23.00;99.90
42339;DHT22;27993;45.392;10.918;2022-09-25T12:00:21;22.80;99.90
42339;DHT22;27993;45.392;10.918;2022-09-25T12:14:20;22.60;99.90
42339;DHT22;27993;45.392;10.918;2022-09-25T12:19:27;22.50;99.90
42339;DHT22;27993;45.392;10.918;2022-09-25T12:22:11;22.30;99.90
42339;DHT22;27993;45.392;10.918;2022-09-25T12:27:48;22.10;99.90
42339;DHT22;27993;45.392;10.918;2022-09-25T12:30:22;22.10;99.90
42339;DHT22;27993;45.392;10.918;2022-09-25T12:36:09;22.00;99.90
42339;DHT22;27993;45.392;10.918;2022-09-25T12:38:49;22.00;99.90
42339;DHT22;27993;45.392;10.918;2022-09-25T12:41:42;21.90;99.90
42339;DHT22;27993;45.392;10.918;2022-09-25T12:44:38;22.00;99.90
42339;DHT22;27993;45.392;10.918;2022-09-25T12:50:03;22.00;99.90
42339;DHT22;27993;45.392;10.918;2022-09-25T12:52:41;22.10;99.90
42339;DHT22;27993;45.392;10.918;2022-09-25T12:55:22;22.00;99.90
42339;DHT22;27993;45.392;10.918;2022-09-25T12:58:20;22.10;99.90
42339;DHT22;27993;45.392;10.918;2022-09-25T13:00:59;22.30;99.90
42339;DHT22;27993;45.392;10.918;2022-09-25T13:03:46;22.40;99.90
42339;DHT22;27993;45.392;10.918;2022-09-25T13:06:27;22.20;99.90
42339;DHT22;27993;45.392;10.918;2022-09-25T13:09:27;22.10;99.90
42339;DHT22;27993;45.392;10.918;2022-09-25T13:12:06;22.30;99.90
42339;DHT22;27993;45.392;10.918;2022-09-25T13:14:43;22.30;99.90
42339;DHT22;27993;45.392;10.918;2022-09-25T13:17:18;22.20;99.90
42339;DHT22;27993;45.392;10.918;2022-09-25T13:19:48;22.20;99.90
42339;DHT22;27993;45.392;10.918;2022-09-25T13:22:24;22.30;99.90
42339;DHT22;27993;45.392;10.918;2022-09-25T13:25:04;22.30;99.90
42339;DHT22;27993;45.392;10.918;2022-09-25T13:27:45;22.00;99.90
42339;DHT22;27993;45.392;10.918;2022-09-25T13:30:27;21.50;99.90
42339;DHT22;27993;45.392;10.918;2022-09-25T13:32:59;21.70;99.90
42339;DHT22;27993;45.392;10.918;2022-09-25T13:35:32;21.70;99.90
42339;DHT22;27993;45.392;10.918;2022-09-25T13:38:16;21.70;99.90
42339;DHT22;27993;45.392;10.918;2022-09-25T13:41:12;21.50;99.90
42339;DHT22;27993;45.392;10.918;2022-09-25T13:43:43;21.70;99.90
42339;DHT22;27993;45.392;10.918;2022-09-25T13:48:51;22.00;99.90
42339;DHT22;27993;45.392;10.918;2022-09-25T13:57:06;21.70;99.90
42339;DHT22;27993;45.392;10.918;2022-09-25T13:59:23;21.80;99.90
42339;DHT22;27993;45.392;10.918;2022-09-25T14:01:56;21.90;99.90
42339;DHT22;27993;45.392;10.918;2022-09-25T14:07:18;22.00;99.90
42339;DHT22;27993;45.392;10.918;2022-09-25T14:09:53;21.70;99.90
42339;DHT22;27993;45.392;10.918;2022-09-25T14:12:41;21.70;99.90
42339;DHT22;27993;45.392;10.918;2022-09-25T14:15:22;21.70;99.90
42339;DHT22;27993;45.392;10.918;2022-09-25T14:17:55;21.60;99.90
42339;DHT22;27993;45.392;10.918;2022-09-25T14:20:38;21.40;99.90
42339;DHT22;27993;45.392;10.918;2022-09-25T14:23:27;21.40;99.90
42339;DHT22;27993;45.392;10.918;2022-09-25T14:26:04;21.50;99.90
42339;DHT22;27993;45.392;10.918;2022-09-25T14:28:43;21.50;99.90
42339;DHT22;27993;45.392;10.918;2022-09-25T14:34:38;21.50;99.90
42339;DHT22;27993;45.392;10.918;2022-09-25T14:46:07;21.50;99.90
42339;DHT22;27993;45.392;10.918;2022-09-25T14:48:44;21.40;99.90
42339;DHT22;27993;45.392;10.918;2022-09-25T14:51:21;21.40;99.90
42339;DHT22;27993;45.392;10.918;2022-09-25T14:54:00;21.40;99.90
42339;DHT22;27993;45.392;10.918;2022-09-25T14:56:32;21.40;99.90
42339;DHT22;27993;45.392;10.918;2022-09-25T14:59:09;21.40;99.90
42339;DHT22;27993;45.392;10.918;2022-09-25T15:01:46;21.40;99.90
42339;DHT22;27993;45.392;10.918;2022-09-25T15:04:36;21.40;99.90
42339;DHT22;27993;45.392;10.918;2022-09-25T15:09:40;21.30;99.90
42339;DHT22;27993;45.392;10.918;2022-09-25T15:20:20;21.20;99.90
42339;DHT22;27993;45.392;10.918;2022-09-25T15:23:06;21.20;99.90
42339;DHT22;27993;45.392;10.918;2022-09-25T15:25:41;21.20;99.90
42339;DHT22;27993;45.392;10.918;2022-09-25T15:28:19;21.30;99.90
42339;DHT22;27993;45.392;10.918;2022-09-25T15:30:57;21.20;99.90
42339;DHT22;27993;45.392;10.918;2022-09-25T15:33:31;21.20;99.90
42339;DHT22;27993;45.392;10.918;2022-09-25T15:38:38;21.20;99.90
42339;DHT22;27993;45.392;10.918;2022-09-25T15:41:13;21.20;99.90
42339;DHT22;27993;45.392;10.918;2022-09-25T15:43:48;21.20;99.90
42339;DHT22;27993;45.392;10.918;2022-09-25T15:46:26;21.10;99.90
42339;DHT22;27993;45.392;10.918;2022-09-25T15:48:59;21.00;99.90
42339;DHT22;27993;45.392;10.918;2022-09-25T15:51:32;20.90;99.90
42339;DHT22;27993;45.392;10.918;2022-09-25T15:54:29;20.90;99.90
42339;DHT22;27993;45.392;10.918;2022-09-25T15:57:03;20.90;99.90
42339;DHT22;27993;45.392;10.918;2022-09-25T15:59:44;20.90;99.90
42339;DHT22;27993;45.392;10.918;2022-09-25T16:02:36;20.80;99.90
42339;DHT22;27993;45.392;10.918;2022-09-25T16:05:33;20.70;99.90
42339;DHT22;27993;45.392;10.918;2022-09-25T16:11:14;20.50;99.90
42339;DHT22;27993;45.392;10.918;2022-09-25T16:13:50;20.50;99.90
42339;DHT22;27993;45.392;10.918;2022-09-25T16:16:23;20.40;99.90
42339;DHT22;27993;45.392;10.918;2022-09-25T16:18:57;20.40;99.90
42339;DHT22;27993;45.392;10.918;2022-09-25T16:21:30;20.40;99.90
42339;DHT22;27993;45.392;10.918;2022-09-25T16:24:05;20.40;99.90
42339;DHT22;27993;45.392;10.918;2022-09-25T16:26:41;20.40;99.90
42339;DHT22;27993;45.392;10.918;2022-09-25T16:29:21;20.40;99.90
42339;DHT22;27993;45.392;10.918;2022-09-25T16:31:53;20.40;99.90
42339;DHT22;27993;45.392;10.918;2022-09-25T16:34:37;20.30;99.90
42339;DHT22;27993;45.392;10.918;2022-09-25T16:37:19;20.30;99.90
42339;DHT22;27993;45.392;10.918;2022-09-25T16:42:48;20.20;99.90
42339;DHT22;27993;45.392;10.918;2022-09-25T16:45:22;20.10;99.90
42339;DHT22;27993;45.392;10.918;2022-09-25T16:47:56;20.10;99.90
42339;DHT22;27993;45.392;10.918;2022-09-25T16:50:32;20.10;99.90
42339;DHT22;27993;45.392;10.918;2022-09-25T16:53:07;20.10;99.90
42339;DHT22;27993;45.392;10.918;2022-09-25T16:55:43;20.10;99.90
42339;DHT22;27993;45.392;10.918;2022-09-25T16:58:14;20.00;99.90
42339;DHT22;27993;45.392;10.918;2022-09-25T17:00:45;20.00;99.90
42339;DHT22;27993;45.392;10.918;2022-09-25T17:03:16;20.00;99.90
42339;DHT22;27993;45.392;10.918;2022-09-25T17:05:46;19.90;99.90
42339;DHT22;27993;45.392;10.918;2022-09-25T17:08:19;19.90;99.90
42339;DHT22;27993;45.392;10.918;2022-09-25T17:10:51;19.80;99.90
42339;DHT22;27993;45.392;10.918;2022-09-25T17:13:26;19.80;99.90
42339;DHT22;27993;45.392;10.918;2022-09-25T17:15:57;19.80;99.90
42339;DHT22;27993;45.392;10.918;2022-09-25T17:18:28;19.80;99.90
42339;DHT22;27993;45.392;10.918;2022-09-25T17:21:08;19.80;99.90
42339;DHT22;27993;45.392;10.918;2022-09-25T17:23:39;19.80;99.90
42339;DHT22;27993;45.392;10.918;2022-09-25T17:26:20;19.80;99.90
42339;DHT22;27993;45.392;10.918;2022-09-25T17:28:50;19.80;99.90
42339;DHT22;27993;45.392;10.918;2022-09-25T17:31:21;19.70;99.90
42339;DHT22;27993;45.392;10.918;2022-09-25T17:33:52;19.70;99.90
42339;DHT22;27993;45.392;10.918;2022-09-25T17:36:23;19.70;99.90
42339;DHT22;27993;45.392;10.918;2022-09-25T17:38:54;19.70;99.90
42339;DHT22;27993;45.392;10.918;2022-09-25T17:41:32;19.60;99.90
42339;DHT22;27993;45.392;10.918;2022-09-25T17:44:04;19.70;99.90
42339;DHT22;27993;45.392;10.918;2022-09-25T17:46:34;19.60;99.90
42339;DHT22;27993;45.392;10.918;2022-09-25T17:49:05;19.60;99.90
42339;DHT22;27993;45.392;10.918;2022-09-25T17:51:36;19.50;99.90
42339;DHT22;27993;45.392;10.918;2022-09-25T17:54:08;19.50;99.90
42339;DHT22;27993;45.392;10.918;2022-09-25T17:56:41;19.50;99.90
42339;DHT22;27993;45.392;10.918;2022-09-25T17:59:14;19.50;99.90
42339;DHT22;27993;45.392;10.918;2022-09-25T18:01:45;19.50;99.90
42339;DHT22;27993;45.392;10.918;2022-09-25T18:04:17;19.40;99.90
42339;DHT22;27993;45.392;10.918;2022-09-25T18:06:49;19.40;99.90
42339;DHT22;27993;45.392;10.918;2022-09-25T18:09:20;19.30;99.90
42339;DHT22;27993;45.392;10.918;2022-09-25T18:11:50;19.30;99.90
42339;DHT22;27993;45.392;10.918;2022-09-25T18:14:22;19.30;99.90
42339;DHT22;27993;45.392;10.918;2022-09-25T18:16:52;19.20;99.90
42339;DHT22;27993;45.392;10.918;2022-09-25T18:19:23;19.20;99.90
42339;DHT22;27993;45.392;10.918;2022-09-25T18:22:12;19.10;99.90
42339;DHT22;27993;45.392;10.918;2022-09-25T18:24:51;19.20;99.90
42339;DHT22;27993;45.392;10.918;2022-09-25T18:27:27;19.20;99.90
42339;DHT22;27993;45.392;10.918;2022-09-25T18:29:59;19.10;99.90
42339;DHT22;27993;45.392;10.918;2022-09-25T18:32:29;19.10;99.90
42339;DHT22;27993;45.392;10.918;2022-09-25T18:35:02;19.10;99.90
42339;DHT22;27993;45.392;10.918;2022-09-25T18:37:33;19.00;99.90